Time;durP1;ratioP1;P1;durP2;ratioP2;P2;SDS_P1;SDS_P2;PMS_P1;PMS_P2;Temp;Humidity;BMP_temperature;BMP_pressure;BME280_temperature;BME280_humidity;BME280_pressure;Samples;Min_cycle;Max_cycle;Signal;HPM_P1;HPM_P2
2023/10/01 00:01:35;;;;;;;21.40;10.77;;;;;;;;;;5070611;28;20044;-60
2023/10/01 00:04:06;;;;;;;20.50;11.80;;;;;;;;;;5071210;28;20487;-60
2023/10/01 00:06:34;;;;;;;23.27;11.93;;;;;;;;;;5071307;28;20436;-60
2023/10/01 00:09:00;;;;;;;21.37;11.70;;;;;;;;;;5071139;28;20074;-60
2023/10/01 00:11:27;;;;;;;21.27;11.27;;;;;;;;;;5070678;28;20047;-60
2023/10/01 00:13:53;;;;;;;23.43;12.73;;;;;;;;;;5070544;28;20048;-60
2023/10/01 00:16:19;;;;;;;26.80;12.17;;;;;;;;;;5070822;28;20054;-60
2023/10/01 00:18:47;;;;;;;19.77;11.60;;;;;;;;;;5070778;28;20091;-59
2023/10/01 00:21:13;;;;;;;20.47;11.33;;;;;;;;;;5070666;28;20049;-59
2023/10/01 00:23:40;;;;;;;20.10;12.20;;;;;;;;;;5070378;28;20055;-60
2023/10/01 00:26:06;;;;;;;16.77;10.73;;;;;;;;;;5069029;28;20059;-60
2023/10/01 00:28:32;;;;;;;16.50;10.33;;;;;;;;;;5070525;28;20471;-60
2023/10/01 00:30:58;;;;;;;22.37;11.97;;;;;;;;;;5070606;28;20054;-60
2023/10/01 00:33:25;;;;;;;18.87;11.63;;;;;;;;;;5070746;28;20044;-60
2023/10/01 00:35:51;;;;;;;22.20;12.60;;;;;;;;;;5070039;28;20080;-60
2023/10/01 00:38:17;;;;;;;20.20;11.93;;;;;;;;;;5070335;28;20612;-60
2023/10/01 00:40:43;;;;;;;21.33;11.80;;;;;;;;;;5070444;28;20119;-61
2023/10/01 00:43:11;;;;;;;18.67;11.37;;;;;;;;;;5070580;28;20045;-60
2023/10/01 00:45:37;;;;;;;23.23;12.50;;;;;;;;;;5070496;28;20059;-60
2023/10/01 00:48:17;;;;;;;18.50;11.43;;;;;;;;;;5070325;28;20044;-60
2023/10/01 00:50:43;;;;;;;19.70;11.70;;;;;;;;;;5069712;28;20123;-60
2023/10/01 00:53:09;;;;;;;22.77;12.63;;;;;;;;;;5069483;28;20051;-60
2023/10/01 00:55:36;;;;;;;20.70;11.93;;;;;;;;;;5070080;28;20043;-60
2023/10/01 00:58:03;;;;;;;20.43;12.30;;;;;;;;;;5070198;28;20053;-60
2023/10/01 01:00:29;;;;;;;18.90;12.53;;;;;;;;;;5069651;28;20053;-60
2023/10/01 01:03:41;;;;;;;19.07;12.00;;;;;;;;;;5070396;28;20048;-60
2023/10/01 01:05:57;;;;;;;20.33;11.60;;;;;;;;;;5065850;28;20055;-60
2023/10/01 01:08:28;;;;;;;20.57;11.90;;;;;;;;;;5069860;28;20094;-60
2023/10/01 01:10:54;;;;;;;18.37;12.97;;;;;;;;;;5069269;28;20052;-60
2023/10/01 01:13:23;;;;;;;23.70;11.37;;;;;;;;;;5070073;28;20051;-60
2023/10/01 01:15:51;;;;;;;22.73;12.40;;;;;;;;;;5069779;28;20479;-60
2023/10/01 01:18:21;;;;;;;20.50;12.47;;;;;;;;;;5069746;28;20524;-61
2023/10/01 01:20:47;;;;;;;19.87;12.30;;;;;;;;;;5069590;28;20052;-61
2023/10/01 01:23:23;;;;;;;18.57;11.57;;;;;;;;;;5069228;28;20449;-61
2023/10/01 01:25:52;;;;;;;18.40;11.93;;;;;;;;;;5069421;28;20387;-61
2023/10/01 01:28:27;;;;;;;20.60;11.80;;;;;;;;;;5069876;28;20097;-60
2023/10/01 01:30:53;;;;;;;20.53;12.33;;;;;;;;;;5068839;28;20059;-61
2023/10/01 01:33:26;;;;;;;19.53;13.07;;;;;;;;;;5069778;28;20037;-61
2023/10/01 01:35:54;;;;;;;19.60;11.90;;;;;;;;;;5069826;28;20590;-61
2023/10/01 01:38:22;;;;;;;17.00;10.90;;;;;;;;;;5069088;28;20475;-61
2023/10/01 01:40:50;;;;;;;18.33;12.13;;;;;;;;;;5069346;28;20099;-61
2023/10/01 01:43:21;;;;;;;13.53;10.77;;;;;;;;;;5069173;28;20052;-61
2023/10/01 01:45:48;;;;;;;22.70;12.17;;;;;;;;;;5068364;28;20059;-61
2023/10/01 01:48:30;;;;;;;20.77;13.00;;;;;;;;;;5069389;28;20098;-61
2023/10/01 01:51:00;;;;;;;20.53;11.47;;;;;;;;;;5068947;28;20040;-61
2023/10/01 01:53:27;;;;;;;16.73;11.43;;;;;;;;;;5068995;28;20110;-61
2023/10/01 01:55:56;;;;;;;20.23;11.73;;;;;;;;;;5068921;28;20080;-61
2023/10/01 01:58:26;;;;;;;16.97;11.70;;;;;;;;;;5068617;28;20465;-60
2023/10/01 02:01:08;;;;;;;19.87;12.23;;;;;;;;;;5069144;28;20453;-61
2023/10/01 02:03:34;;;;;;;21.97;12.30;;;;;;;;;;5068870;28;20048;-61
2023/10/01 02:06:07;;;;;;;21.27;11.30;;;;;;;;;;5069057;28;20058;-61
2023/10/01 02:08:49;;;;;;;20.50;12.73;;;;;;;;;;5068783;28;20048;-60
2023/10/01 02:11:19;;;;;;;20.77;12.00;;;;;;;;;;5068568;28;20049;-61
2023/10/01 02:13:46;;;;;;;16.47;11.63;;;;;;;;;;5068634;28;20387;-61
2023/10/01 02:18:58;;;;;;;17.80;12.00;;;;;;;;;;5068422;28;20090;-60
2023/10/01 02:21:43;;;;;;;20.57;11.90;;;;;;;;;;5068579;28;20048;-61
2023/10/01 02:24:13;;;;;;;16.47;11.80;;;;;;;;;;5068573;28;20498;-60
2023/10/01 02:26:40;;;;;;;20.67;11.70;;;;;;;;;;5068066;28;20110;-61
2023/10/01 02:29:06;;;;;;;18.07;11.50;;;;;;;;;;5068374;28;20055;-60
2023/10/01 02:31:39;;;;;;;19.03;11.27;;;;;;;;;;5068835;28;20052;-61
2023/10/01 02:34:08;;;;;;;17.03;10.63;;;;;;;;;;5068554;28;20047;-61
2023/10/01 02:36:36;;;;;;;22.77;12.03;;;;;;;;;;5068093;28;20105;-61
2023/10/01 02:39:11;;;;;;;15.67;11.47;;;;;;;;;;5067693;28;20076;-61
2023/10/01 02:41:40;;;;;;;17.37;11.47;;;;;;;;;;5068459;28;20041;-60
2023/10/01 02:44:11;;;;;;;18.70;11.37;;;;;;;;;;5068111;28;20475;-61
2023/10/01 02:46:37;;;;;;;16.43;10.40;;;;;;;;;;5068288;28;20074;-61
2023/10/01 02:49:05;;;;;;;19.90;11.30;;;;;;;;;;5066590;28;20091;-60
2023/10/01 02:51:37;;;;;;;20.53;11.40;;;;;;;;;;5068315;28;20419;-60
2023/10/01 02:56:52;;;;;;;16.27;11.33;;;;;;;;;;5068249;28;20089;-61
2023/10/01 02:59:19;;;;;;;20.23;11.53;;;;;;;;;;5067969;28;20717;-61
2023/10/01 03:01:49;;;;;;;19.07;12.43;;;;;;;;;;5067870;28;20098;-60
2023/10/01 03:04:16;;;;;;;19.83;11.57;;;;;;;;;;5067348;28;20455;-60
2023/10/01 03:06:52;;;;;;;19.17;11.90;;;;;;;;;;5068195;28;20114;-60
2023/10/01 03:09:34;;;;;;;20.17;12.13;;;;;;;;;;5067993;28;20533;-60
2023/10/01 03:15:00;;;;;;;17.80;11.17;;;;;;;;;;5068561;28;20048;-61
2023/10/01 03:17:28;;;;;;;14.83;9.97;;;;;;;;;;5071882;28;20047;-62
2023/10/01 03:19:54;;;;;;;16.57;10.60;;;;;;;;;;5071867;28;20113;-61
2023/10/01 03:22:23;;;;;;;15.33;10.13;;;;;;;;;;5071632;28;20127;-63
2023/10/01 03:24:50;;;;;;;17.63;11.00;;;;;;;;;;5071664;28;20135;-60
2023/10/01 03:27:20;;;;;;;18.40;10.47;;;;;;;;;;5071725;28;20080;-60
2023/10/01 03:29:49;;;;;;;21.10;11.63;;;;;;;;;;5071559;28;20187;-60
2023/10/01 03:32:27;;;;;;;21.57;10.73;;;;;;;;;;5071076;28;20518;-60
2023/10/01 03:34:53;;;;;;;18.73;11.70;;;;;;;;;;5071599;28;20060;-60
2023/10/01 03:37:22;;;;;;;18.77;10.20;;;;;;;;;;5071484;28;20143;-60
2023/10/01 03:39:52;;;;;;;18.40;10.27;;;;;;;;;;5071331;28;20053;-61
2023/10/01 03:42:18;;;;;;;17.33;11.03;;;;;;;;;;5071214;28;20036;-60
2023/10/01 03:45:26;;;;;;;19.83;10.80;;;;;;;;;;5071483;28;20047;-61
2023/10/01 03:47:51;;;;;;;16.37;9.87;;;;;;;;;;5071090;28;20130;-61
2023/10/01 03:50:21;;;;;;;23.17;11.57;;;;;;;;;;5071416;28;20052;-61
2023/10/01 03:52:52;;;;;;;17.33;11.20;;;;;;;;;;5071488;28;20107;-61
2023/10/01 03:55:28;;;;;;;17.67;10.27;;;;;;;;;;5070963;28;20526;-61
2023/10/01 04:00:41;;;;;;;15.48;10.35;;;;;;;;;;5071169;28;20166;-61
2023/10/01 04:03:08;;;;;;;22.70;11.43;;;;;;;;;;5070706;28;20040;-60
2023/10/01 04:05:34;;;;;;;17.37;10.50;;;;;;;;;;5071116;28;20049;-60
2023/10/01 04:08:11;;;;;;;20.53;10.00;;;;;;;;;;5060463;28;20082;-61
2023/10/01 04:10:38;;;;;;;18.93;10.30;;;;;;;;;;5068767;28;20400;-60
2023/10/01 04:13:20;;;;;;;17.90;9.20;;;;;;;;;;5066954;28;20061;-61
2023/10/01 04:15:47;;;;;;;16.03;10.87;;;;;;;;;;5070881;28;20044;-61
2023/10/01 04:21:17;;;;;;;17.10;9.10;;;;;;;;;;5070793;28;20151;-60
2023/10/01 04:23:49;;;;;;;15.97;8.80;;;;;;;;;;5069723;28;20530;-61
2023/10/01 04:26:19;;;;;;;16.63;9.57;;;;;;;;;;5069692;28;20045;-60
2023/10/01 04:28:46;;;;;;;14.43;9.27;;;;;;;;;;5070609;28;20045;-61
2023/10/01 04:31:18;;;;;;;19.07;9.40;;;;;;;;;;5069733;28;20392;-60
2023/10/01 04:33:48;;;;;;;17.17;8.97;;;;;;;;;;5070651;28;20049;-61
2023/10/01 04:36:19;;;;;;;16.37;9.67;;;;;;;;;;5070226;28;20127;-61
2023/10/01 04:38:45;;;;;;;17.40;9.77;;;;;;;;;;5070284;28;20063;-61
2023/10/01 04:41:18;;;;;;;17.43;9.90;;;;;;;;;;5070276;28;20513;-60
2023/10/01 04:46:45;;;;;;;16.13;8.57;;;;;;;;;;5057787;28;20052;-61
2023/10/01 04:49:27;;;;;;;21.93;10.20;;;;;;;;;;5070180;28;20090;-61
2023/10/01 04:51:58;;;;;;;14.47;8.63;;;;;;;;;;5070206;28;20040;-61
2023/10/01 04:54:25;;;;;;;17.00;9.60;;;;;;;;;;5068651;28;20045;-61
2023/10/01 04:56:52;;;;;;;15.47;9.00;;;;;;;;;;5063786;28;20072;-60
2023/10/01 04:59:21;;;;;;;14.63;8.57;;;;;;;;;;5050175;28;20497;-60
2023/10/01 05:01:47;;;;;;;17.97;9.47;;;;;;;;;;5050021;28;20057;-62
2023/10/01 05:04:14;;;;;;;20.67;10.23;;;;;;;;;;5049776;28;20414;-61
2023/10/01 05:06:43;;;;;;;19.83;8.93;;;;;;;;;;5049589;28;20056;-60
2023/10/01 05:09:09;;;;;;;16.37;8.60;;;;;;;;;;5049671;28;20411;-61
2023/10/01 05:11:36;;;;;;;13.90;8.27;;;;;;;;;;5050030;28;20041;-60
2023/10/01 05:14:04;;;;;;;15.03;7.90;;;;;;;;;;5049730;28;20041;-61
2023/10/01 05:16:38;;;;;;;16.60;8.43;;;;;;;;;;5049602;28;20131;-60
2023/10/01 05:19:10;;;;;;;16.53;8.47;;;;;;;;;;5051615;28;20037;-61
2023/10/01 05:21:50;;;;;;;16.77;8.93;;;;;;;;;;5058144;28;20072;-60
2023/10/01 05:24:31;;;;;;;12.73;7.67;;;;;;;;;;5050303;28;20041;-60
2023/10/01 05:27:00;;;;;;;19.27;9.23;;;;;;;;;;5060669;28;20048;-61
2023/10/01 05:29:26;;;;;;;16.30;9.10;;;;;;;;;;5058933;28;20052;-60
2023/10/01 05:31:55;;;;;;;17.27;8.97;;;;;;;;;;5049880;28;20040;-60
2023/10/01 05:34:22;;;;;;;18.00;8.97;;;;;;;;;;5048746;28;20049;-60
2023/10/01 05:36:52;;;;;;;15.67;8.73;;;;;;;;;;5051572;28;20084;-60
2023/10/01 05:39:20;;;;;;;20.30;9.10;;;;;;;;;;5050812;28;20053;-61
2023/10/01 05:41:46;;;;;;;17.20;9.03;;;;;;;;;;5049588;28;20049;-60
2023/10/01 05:44:14;;;;;;;17.63;8.80;;;;;;;;;;5053785;28;20499;-61
2023/10/01 05:46:40;;;;;;;16.03;8.97;;;;;;;;;;5052860;28;20156;-60
2023/10/01 05:49:08;;;;;;;16.07;8.10;;;;;;;;;;5066433;28;20131;-60
2023/10/01 05:51:44;;;;;;;14.73;8.67;;;;;;;;;;5055952;28;20048;-60
2023/10/01 05:54:12;;;;;;;15.37;8.70;;;;;;;;;;5049608;28;20056;-60
2023/10/01 05:56:43;;;;;;;19.63;9.50;;;;;;;;;;5051035;28;20091;-60
2023/10/01 05:59:11;;;;;;;16.23;8.70;;;;;;;;;;5054303;28;20073;-61
2023/10/01 06:01:39;;;;;;;15.30;8.67;;;;;;;;;;5054697;28;20159;-60
2023/10/01 06:04:12;;;;;;;15.40;8.73;;;;;;;;;;5059260;28;20414;-60
2023/10/01 06:06:42;;;;;;;14.73;9.30;;;;;;;;;;5069071;28;20049;-61
2023/10/01 06:09:09;;;;;;;17.37;9.23;;;;;;;;;;5054459;28;20041;-60
2023/10/01 06:11:38;;;;;;;17.37;9.80;;;;;;;;;;5048337;28;20434;-61
2023/10/01 06:14:05;;;;;;;20.83;9.30;;;;;;;;;;5063974;28;20170;-60
2023/10/01 06:16:37;;;;;;;15.20;8.90;;;;;;;;;;5068661;28;20049;-61
2023/10/01 06:19:03;;;;;;;17.23;8.07;;;;;;;;;;5068864;28;20584;-61
2023/10/01 06:21:33;;;;;;;14.40;8.60;;;;;;;;;;5052940;28;20283;-61
2023/10/01 06:24:04;;;;;;;18.10;8.77;;;;;;;;;;5048759;28;20121;-60
2023/10/01 06:26:37;;;;;;;14.97;8.50;;;;;;;;;;5048277;28;20063;-61
2023/10/01 06:29:03;;;;;;;;;;;;;;;;;;5056540;28;20108;-60
2023/10/01 06:31:47;;;;;;;17.57;8.30;;;;;;;;;;5049902;28;19925;-61
2023/10/01 06:34:13;;;;;;;19.80;9.80;;;;;;;;;;5048207;28;20516;-61
2023/10/01 06:36:40;;;;;;;18.80;8.67;;;;;;;;;;5048111;28;20091;-61
2023/10/01 06:39:06;;;;;;;22.37;10.60;;;;;;;;;;5048383;28;20136;-61
2023/10/01 06:41:32;;;;;;;21.00;9.80;;;;;;;;;;5062345;28;20045;-60
2023/10/01 06:44:01;;;;;;;21.60;10.40;;;;;;;;;;5067682;28;20105;-60
2023/10/01 06:46:27;;;;;;;16.60;9.70;;;;;;;;;;5066344;28;20052;-60
2023/10/01 06:48:56;;;;;;;15.60;9.13;;;;;;;;;;5048065;28;20033;-61
2023/10/01 06:51:24;;;;;;;16.63;9.90;;;;;;;;;;5047559;28;20123;-61
2023/10/01 06:53:58;;;;;;;18.10;9.23;;;;;;;;;;5048251;28;20049;-61
2023/10/01 06:56:25;;;;;;;18.33;8.97;;;;;;;;;;5048415;28;20049;-60
2023/10/01 06:59:13;;;;;;;17.87;10.13;;;;;;;;;;5048130;28;20052;-61
2023/10/01 07:01:42;;;;;;;15.83;8.03;;;;;;;;;;5048123;28;20556;-61
2023/10/01 07:04:12;;;;;;;17.80;9.27;;;;;;;;;;5048285;28;20183;-61
2023/10/01 07:06:38;;;;;;;17.20;8.70;;;;;;;;;;5048052;28;20512;-63
2023/10/01 07:09:24;;;;;;;18.67;8.87;;;;;;;;;;5048182;28;20045;-61
2023/10/01 07:11:50;;;;;;;15.80;8.20;;;;;;;;;;5048004;28;20049;-60
2023/10/01 07:14:18;;;;;;;18.03;8.27;;;;;;;;;;5048085;28;20051;-61
2023/10/01 07:16:44;;;;;;;14.43;7.43;;;;;;;;;;5047976;28;20091;-60
2023/10/01 07:19:13;;;;;;;13.40;8.23;;;;;;;;;;5048047;28;20075;-62
2023/10/01 07:21:45;;;;;;;17.63;8.10;;;;;;;;;;5048343;28;20057;-62
2023/10/01 07:24:12;;;;;;;16.13;7.73;;;;;;;;;;5047614;28;20052;-61
2023/10/01 07:26:41;;;;;;;13.73;8.00;;;;;;;;;;5047774;28;20084;-61
2023/10/01 07:29:08;;;;;;;14.27;7.97;;;;;;;;;;5048018;28;20129;-61
2023/10/01 07:31:35;;;;;;;16.13;8.40;;;;;;;;;;5047659;28;20045;-61
2023/10/01 07:34:12;;;;;;;15.60;8.50;;;;;;;;;;5047597;28;20123;-62
2023/10/01 07:36:42;;;;;;;15.70;8.27;;;;;;;;;;5048353;28;20563;-61
2023/10/01 07:39:08;;;;;;;19.77;8.27;;;;;;;;;;5056208;28;20490;-61
2023/10/01 07:41:38;;;;;;;15.93;7.57;;;;;;;;;;5054866;28;20039;-61
2023/10/01 07:44:08;;;;;;;19.40;8.73;;;;;;;;;;5057188;28;20884;-60
2023/10/01 07:46:34;;;;;;;20.77;8.30;;;;;;;;;;5067732;28;20049;-60
2023/10/01 07:49:00;;;;;;;11.80;7.17;;;;;;;;;;5052544;28;20072;-60
2023/10/01 07:51:26;;;;;;;14.13;7.00;;;;;;;;;;5057266;28;20041;-60
2023/10/01 07:53:53;;;;;;;14.23;8.07;;;;;;;;;;5047709;28;20053;-60
2023/10/01 07:56:21;;;;;;;16.80;7.73;;;;;;;;;;5051689;28;20056;-61
2023/10/01 07:58:48;;;;;;;17.77;7.20;;;;;;;;;;5065504;28;20064;-60
2023/10/01 08:04:05;;;;;;;18.03;7.80;;;;;;;;;;5069871;28;20140;-60
2023/10/01 08:06:32;;;;;;;13.93;6.87;;;;;;;;;;5071104;28;20052;-60
2023/10/01 08:09:08;;;;;;;12.23;6.77;;;;;;;;;;5070380;28;20051;-60
2023/10/01 08:14:20;;;;;;;15.60;7.17;;;;;;;;;;5070711;28;20064;-60
2023/10/01 08:16:50;;;;;;;13.07;7.17;;;;;;;;;;5070391;28;20486;-60
2023/10/01 08:19:20;;;;;;;17.33;7.17;;;;;;;;;;5070033;28;20048;-60
2023/10/01 08:21:53;;;;;;;15.23;7.13;;;;;;;;;;5070602;28;20139;-60
2023/10/01 08:24:33;;;;;;;14.53;7.17;;;;;;;;;;5070645;28;20492;-60
2023/10/01 08:27:03;;;;;;;11.77;6.30;;;;;;;;;;5070418;28;20139;-60
2023/10/01 08:29:59;;;;;;;17.33;7.33;;;;;;;;;;5070400;28;20524;-60
2023/10/01 08:32:22;;;;;;;21.63;7.90;;;;;;;;;;5070036;28;20498;-60
2023/10/01 08:35:01;;;;;;;13.60;6.87;;;;;;;;;;5070227;28;20123;-60
2023/10/01 08:37:31;;;;;;;14.83;6.33;;;;;;;;;;5069720;28;20514;-60
2023/10/01 08:40:00;;;;;;;11.57;5.80;;;;;;;;;;5070441;28;20060;-60
2023/10/01 08:42:30;;;;;;;15.90;7.00;;;;;;;;;;5070264;28;20048;-60
2023/10/01 08:45:06;;;;;;;17.67;7.53;;;;;;;;;;5070090;28;20036;-61
2023/10/01 08:47:36;;;;;;;14.63;6.67;;;;;;;;;;5069957;28;20502;-61
2023/10/01 08:52:52;;;;;;;16.07;7.37;;;;;;;;;;5069539;28;20052;-60
2023/10/01 08:55:35;;;;;;;12.03;6.60;;;;;;;;;;5070248;28;20123;-61
2023/10/01 09:00:52;;;;;;;15.93;6.77;;;;;;;;;;5069756;28;20486;-61
2023/10/01 09:03:34;;;;;;;12.77;7.47;;;;;;;;;;5069792;28;20857;-60
2023/10/01 09:06:04;;;;;;;17.23;7.97;;;;;;;;;;5069606;28;20085;-60
2023/10/01 09:08:42;;;;;;;14.67;7.20;;;;;;;;;;5069661;28;21786;-60
2023/10/01 09:11:12;;;;;;;14.57;7.33;;;;;;;;;;5069683;28;20106;-61
2023/10/01 09:13:58;;;;;;;15.77;6.73;;;;;;;;;;5068754;28;20048;-61
2023/10/01 09:16:30;;;;;;;17.67;8.03;;;;;;;;;;5069643;28;20056;-61
2023/10/01 09:19:03;;;;;;;15.85;6.90;;;;;;;;;;5069223;28;20090;-60
2023/10/01 09:21:38;;;;;;;14.43;7.45;;;;;;;;;;5069619;28;20040;-60
2023/10/01 09:24:31;;;;;;;16.60;7.90;;;;;;;;;;5069256;28;20167;-61
2023/10/01 09:27:08;;;;;;;17.55;7.50;;;;;;;;;;5069064;28;20491;-60
2023/10/01 09:29:43;;;;;;;16.23;7.23;;;;;;;;;;5069054;28;20149;-60
2023/10/01 09:32:11;;;;;;;14.83;6.53;;;;;;;;;;5069199;28;20049;-61
2023/10/01 09:34:46;;;;;;;13.27;7.60;;;;;;;;;;5069041;28;20040;-60
2023/10/01 09:40:03;;;;;;;15.17;7.47;;;;;;;;;;5069307;28;20048;-60
2023/10/01 09:42:33;;;;;;;16.30;7.67;;;;;;;;;;5069236;28;20041;-60
2023/10/01 09:45:09;;;;;;;14.83;6.90;;;;;;;;;;5069164;28;20513;-61
2023/10/01 09:47:35;;;;;;;14.37;7.57;;;;;;;;;;5068391;28;20045;-61
2023/10/01 09:50:03;;;;;;;15.17;7.70;;;;;;;;;;5069024;28;20045;-61
2023/10/01 09:52:48;;;;;;;17.97;7.63;;;;;;;;;;5068847;28;20102;-61
2023/10/01 09:55:26;;;;;;;15.07;7.40;;;;;;;;;;5068636;28;20147;-61
2023/10/01 09:57:59;;;;;;;17.63;7.50;;;;;;;;;;5068480;28;20574;-61
2023/10/01 10:00:41;;;;;;;14.10;7.20;;;;;;;;;;5068154;28;20513;-62
2023/10/01 10:03:12;;;;;;;17.87;8.17;;;;;;;;;;5068903;28;20355;-62
2023/10/01 10:05:42;;;;;;;14.83;6.93;;;;;;;;;;5068682;28;20046;-61
2023/10/01 10:08:15;;;;;;;17.10;7.77;;;;;;;;;;5068651;28;20418;-61
2023/10/01 10:10:52;;;;;;;15.30;7.43;;;;;;;;;;5068001;28;20095;-61
2023/10/01 10:13:37;;;;;;;18.40;7.83;;;;;;;;;;5068698;28;20056;-61
2023/10/01 10:19:20;;;;;;;15.93;7.07;;;;;;;;;;5045859;28;20981;-61
2023/10/01 10:24:30;;;;;;;19.37;8.60;;;;;;;;;;5059537;28;20057;-61
2023/10/01 10:26:57;;;;;;;14.67;7.77;;;;;;;;;;5067962;28;20484;-61
2023/10/01 10:29:41;;;;;;;15.20;8.07;;;;;;;;;;5067986;28;20040;-61
2023/10/01 10:32:10;;;;;;;13.83;7.33;;;;;;;;;;5068244;28;20041;-62
2023/10/01 10:34:37;;;;;;;14.93;7.50;;;;;;;;;;5068246;28;20122;-62
2023/10/01 10:37:06;;;;;;;17.30;8.67;;;;;;;;;;5068185;28;20192;-62
2023/10/01 10:39:53;;;;;;;16.63;8.43;;;;;;;;;;5067522;28;20079;-61
2023/10/01 10:42:28;;;;;;;16.30;8.17;;;;;;;;;;5068011;28;20056;-61
2023/10/01 10:45:21;;;;;;;16.63;9.13;;;;;;;;;;5068050;28;20043;-62
2023/10/01 10:48:04;;;;;;;13.82;7.95;;;;;;;;;;5067858;28;20055;-63
2023/10/01 10:50:41;;;;;;;17.02;8.63;;;;;;;;;;5067629;28;20045;-63
2023/10/01 10:53:15;;;;;;;16.03;7.50;;;;;;;;;;5067410;28;20434;-62
2023/10/01 10:55:51;;;;;;;17.97;8.60;;;;;;;;;;5067670;28;20049;-61
2023/10/01 10:58:19;;;;;;;18.37;8.87;;;;;;;;;;5067874;28;20428;-61
2023/10/01 11:00:46;;;;;;;14.87;7.93;;;;;;;;;;5067270;28;20050;-59
2023/10/01 11:03:12;;;;;;;16.90;8.17;;;;;;;;;;5067926;28;20049;-61
2023/10/01 11:05:49;;;;;;;18.23;7.90;;;;;;;;;;5067726;28;20059;-61
2023/10/01 11:08:25;;;;;;;14.67;7.57;;;;;;;;;;5068162;28;20052;-61
2023/10/01 11:10:56;;;;;;;16.77;8.90;;;;;;;;;;5067614;28;20586;-61
2023/10/01 11:13:37;;;;;;;18.27;8.20;;;;;;;;;;5067333;28;20053;-60
2023/10/01 11:16:14;;;;;;;18.03;8.80;;;;;;;;;;5067704;28;20040;-60
2023/10/01 11:18:41;;;;;;;17.00;8.60;;;;;;;;;;5067578;28;20080;-59
2023/10/01 11:21:11;;;;;;;16.63;7.33;;;;;;;;;;5067592;28;20131;-60
2023/10/01 11:23:40;;;;;;;14.57;7.20;;;;;;;;;;5067106;28;20061;-60
2023/10/01 11:26:06;;;;;;;14.43;8.00;;;;;;;;;;5067783;28;20513;-60
2023/10/01 11:28:41;;;;;;;18.77;8.17;;;;;;;;;;5067828;28;20041;-59
2023/10/01 11:31:22;;;;;;;15.30;8.82;;;;;;;;;;5067788;28;20044;-59
2023/10/01 11:33:57;;;;;;;13.43;7.60;;;;;;;;;;5067098;28;20510;-60
2023/10/01 11:36:23;;;;;;;16.38;8.18;;;;;;;;;;5069239;28;20094;-59
2023/10/01 11:38:50;;;;;;;13.07;7.88;;;;;;;;;;5071204;28;20392;-59
2023/10/01 11:41:19;;;;;;;14.48;7.20;;;;;;;;;;5071026;28;20070;-59
2023/10/01 11:44:06;;;;;;;16.08;7.45;;;;;;;;;;5071844;28;20066;-59
2023/10/01 11:46:35;;;;;;;15.10;6.88;;;;;;;;;;5071200;28;20056;-59
2023/10/01 11:49:08;;;;;;;16.00;6.88;;;;;;;;;;5071074;28;20147;-60
2023/10/01 11:51:54;;;;;;;13.98;7.30;;;;;;;;;;5070419;28;20052;-59
2023/10/01 11:54:21;;;;;;;15.10;7.30;;;;;;;;;;5070879;28;20056;-60
2023/10/01 11:57:04;;;;;;;13.73;7.05;;;;;;;;;;5071322;28;20044;-59
2023/10/01 11:59:30;;;;;;;16.35;7.45;;;;;;;;;;5070796;28;20040;-59
2023/10/01 12:02:15;;;;;;;14.07;6.82;;;;;;;;;;5070949;28;20640;-59
2023/10/01 12:04:44;;;;;;;14.68;7.93;;;;;;;;;;5070329;28;20052;-59
2023/10/01 12:07:17;;;;;;;13.93;6.80;;;;;;;;;;5071256;28;20181;-59
2023/10/01 12:09:48;;;;;;;14.80;7.18;;;;;;;;;;5070556;28;20044;-60
2023/10/01 12:12:14;;;;;;;15.32;7.55;;;;;;;;;;5070857;28;20101;-60
2023/10/01 12:14:55;;;;;;;12.93;7.32;;;;;;;;;;5071124;28;21007;-59
2023/10/01 12:17:23;;;;;;;14.13;6.50;;;;;;;;;;5070177;28;20049;-59
2023/10/01 12:19:53;;;;;;;14.23;7.03;;;;;;;;;;5070840;28;20056;-60
2023/10/01 12:22:24;;;;;;;11.68;7.00;;;;;;;;;;5070861;28;20110;-59
2023/10/01 12:24:56;;;;;;;13.63;7.18;;;;;;;;;;5070761;28;20134;-59
2023/10/01 12:27:38;;;;;;;;;;;;;;;;;;5070515;28;20057;-60
2023/10/01 12:30:29;;;;;;;12.77;6.15;;;;;;;;;;5070413;28;19921;-61
2023/10/01 12:32:56;;;;;;;10.32;5.50;;;;;;;;;;5070067;28;20114;-61
2023/10/01 12:35:28;;;;;;;11.80;6.05;;;;;;;;;;5069850;28;20651;-60
2023/10/01 12:38:05;;;;;;;13.88;6.38;;;;;;;;;;5070141;28;20465;-61
2023/10/01 12:40:34;;;;;;;11.43;6.15;;;;;;;;;;5070223;28;20055;-60
2023/10/01 12:43:01;;;;;;;10.52;5.65;;;;;;;;;;5070390;28;20473;-60
2023/10/01 12:45:27;;;;;;;13.30;6.57;;;;;;;;;;5069816;28;20045;-60
2023/10/01 12:47:54;;;;;;;10.65;6.38;;;;;;;;;;5068809;28;20045;-60
2023/10/01 12:50:29;;;;;;;11.85;5.85;;;;;;;;;;5069874;28;20562;-61
2023/10/01 12:55:39;;;;;;;11.30;6.13;;;;;;;;;;5069936;28;20049;-60
2023/10/01 12:58:09;;;;;;;10.43;5.65;;;;;;;;;;5069525;28;20049;-60
2023/10/01 13:00:44;;;;;;;15.80;6.45;;;;;;;;;;5069798;28;20049;-61
2023/10/01 13:03:16;;;;;;;14.38;6.72;;;;;;;;;;5070116;28;20048;-60
2023/10/01 13:05:45;;;;;;;11.88;6.32;;;;;;;;;;5069898;28;20049;-60
2023/10/01 13:08:11;;;;;;;12.95;6.22;;;;;;;;;;5069800;28;20044;-60
2023/10/01 13:10:38;;;;;;;11.63;5.95;;;;;;;;;;5068931;28;20050;-61
2023/10/01 13:13:08;;;;;;;10.38;6.00;;;;;;;;;;5069811;28;20056;-60
2023/10/01 13:15:37;;;;;;;12.18;6.75;;;;;;;;;;5069584;28;20586;-60
2023/10/01 13:18:11;;;;;;;10.18;6.10;;;;;;;;;;5069649;28;20052;-60
2023/10/01 13:23:16;;;;;;;12.23;6.88;;;;;;;;;;5069356;28;20051;-60
2023/10/01 13:26:05;;;;;;;10.57;6.22;;;;;;;;;;5068835;28;20537;-60
2023/10/01 13:28:43;;;;;;;11.65;6.15;;;;;;;;;;5069183;28;20047;-60
2023/10/01 13:31:12;;;;;;;13.32;6.40;;;;;;;;;;5069459;28;20055;-61
2023/10/01 13:33:56;;;;;;;12.63;6.57;;;;;;;;;;5068682;28;20335;-60
2023/10/01 13:36:35;;;;;;;12.43;6.28;;;;;;;;;;5069482;28;20098;-61
2023/10/01 14:09:46;;;;;;;13.63;7.22;;;;;;;;;;5068748;28;20427;-60
2023/10/01 14:12:09;;;;;;;13.40;6.90;;;;;;;;;;5067610;28;20048;-60
2023/10/01 14:14:35;;;;;;;10.57;6.53;;;;;;;;;;5068351;28;20092;-60
2023/10/01 14:17:13;;;;;;;13.27;6.70;;;;;;;;;;5068402;28;20083;-60
2023/10/01 14:19:42;;;;;;;11.95;7.05;;;;;;;;;;5068054;28;20043;-60
2023/10/01 14:22:19;;;;;;;11.00;6.38;;;;;;;;;;5067761;28;20387;-60
2023/10/01 14:24:45;;;;;;;15.52;7.68;;;;;;;;;;5068185;28;20506;-60
2023/10/01 14:27:24;;;;;;;11.50;7.15;;;;;;;;;;5066796;28;20055;-60
2023/10/01 14:30:00;;;;;;;11.02;7.03;;;;;;;;;;5067691;28;20044;-60
2023/10/01 14:32:34;;;;;;;14.63;7.03;;;;;;;;;;5068190;28;20137;-60
2023/10/01 14:35:00;;;;;;;12.35;7.38;;;;;;;;;;5068136;28;20071;-60
2023/10/01 14:37:28;;;;;;;15.32;7.88;;;;;;;;;;5067522;28;20124;-60
2023/10/01 14:39:54;;;;;;;11.20;7.20;;;;;;;;;;5068024;28;20480;-61
2023/10/01 14:42:20;;;;;;;12.68;7.13;;;;;;;;;;5068088;28;20053;-61
2023/10/01 14:44:46;;;;;;;13.65;7.95;;;;;;;;;;5068016;28;20098;-61
2023/10/01 14:47:17;;;;;;;16.92;7.32;;;;;;;;;;5067740;28;20059;-60
2023/10/01 14:49:43;;;;;;;13.35;8.02;;;;;;;;;;5067916;28;20048;-60
2023/10/01 14:52:22;;;;;;;15.50;8.70;;;;;;;;;;5066382;28;20594;-60
2023/10/01 14:54:48;;;;;;;12.05;7.75;;;;;;;;;;5067686;28;20044;-60
2023/10/01 14:57:16;;;;;;;13.95;8.05;;;;;;;;;;5067910;28;20045;-60
2023/10/01 14:59:43;;;;;;;15.65;7.35;;;;;;;;;;5067855;28;20048;-60
2023/10/01 15:02:15;;;;;;;15.80;8.27;;;;;;;;;;5067350;28;20070;-60
2023/10/01 15:04:41;;;;;;;16.30;8.57;;;;;;;;;;5067832;28;20088;-60
2023/10/01 15:07:07;;;;;;;17.10;8.18;;;;;;;;;;5067580;28;20063;-60
2023/10/01 15:09:37;;;;;;;12.93;7.45;;;;;;;;;;5067779;28;20040;-60
2023/10/01 15:12:04;;;;;;;18.27;8.52;;;;;;;;;;5067268;28;20068;-60
2023/10/01 15:14:32;;;;;;;14.80;8.30;;;;;;;;;;5067253;28;20451;-60
2023/10/01 15:16:58;;;;;;;15.43;8.60;;;;;;;;;;5067442;28;20045;-60
2023/10/01 15:19:25;;;;;;;15.03;8.37;;;;;;;;;;5067613;28;20556;-60
2023/10/01 15:21:52;;;;;;;13.52;9.15;;;;;;;;;;5067477;28;20071;-60
2023/10/01 15:24:20;;;;;;;16.75;9.23;;;;;;;;;;5067276;28;20055;-60
2023/10/01 15:26:47;;;;;;;16.80;9.18;;;;;;;;;;5067288;28;20056;-60
2023/10/01 15:29:13;;;;;;;18.00;9.73;;;;;;;;;;5067486;28;20179;-60
2023/10/01 15:31:39;;;;;;;16.27;9.35;;;;;;;;;;5066962;28;20044;-60
2023/10/01 15:34:15;;;;;;;16.70;9.52;;;;;;;;;;5067601;28;20052;-60
2023/10/01 15:36:48;;;;;;;18.90;9.25;;;;;;;;;;5067213;28;20511;-60
2023/10/01 15:42:18;;;;;;;16.33;10.25;;;;;;;;;;5061802;28;20423;-60
2023/10/01 15:44:45;;;;;;;16.88;9.00;;;;;;;;;;5067037;28;20044;-61
2023/10/01 15:47:25;;;;;;;17.30;10.50;;;;;;;;;;5066009;28;20095;-60
2023/10/01 15:49:55;;;;;;;17.30;9.80;;;;;;;;;;5067448;28;20406;-60
2023/10/01 15:52:22;;;;;;;17.40;9.70;;;;;;;;;;5067379;28;20119;-60
2023/10/01 15:54:48;;;;;;;16.75;9.43;;;;;;;;;;5066992;28;20131;-60
2023/10/01 15:57:17;;;;;;;13.55;9.55;;;;;;;;;;5066947;28;20143;-60
2023/10/01 15:59:43;;;;;;;17.15;9.43;;;;;;;;;;5066904;28;20051;-60
2023/10/01 16:02:18;;;;;;;19.00;9.80;;;;;;;;;;5067476;28;20051;-60
2023/10/01 16:04:45;;;;;;;16.90;10.52;;;;;;;;;;5067213;28;20045;-60